Terminal Aerodrome Forecast
Issued by NWS

Home | Current Version | Previous Version | Text Only | Print | Product List | Glossary On
Versions: 1 2 3 4 5 6 7 8 9 10 11 12 13 14 15
000
FTUS45 KABQ 231736
TAFFMN
TAF
KFMN 231736Z 2318/2418 28023G33KT P6SM SCT080
     FM240100 29013KT P6SM FEW080
     FM240500 29006KT P6SM FEW070
     FM241700 28013G22KT P6SM FEW070=

USA.gov is the U.S. government's official web portal to all federal, state and local government web resources and services.